createdAt,value
2019-02-16T00:01:39.713Z,10.01
2019-02-16T00:07:34.707Z,7.46
2019-02-16T00:13:29.748Z,7.45
2019-02-16T00:19:24.724Z,4.78
2019-02-16T00:25:19.726Z,3.7
2019-02-16T00:31:14.702Z,5.74
2019-02-16T00:37:09.694Z,11.4
2019-02-16T00:43:04.768Z,12.77
2019-02-16T00:48:59.709Z,12.83
2019-02-16T00:54:54.739Z,14.21
2019-02-16T01:00:49.723Z,12.19
2019-02-16T01:06:44.724Z,12.31
2019-02-16T01:12:39.725Z,11.56
2019-02-16T01:18:34.741Z,10.7
2019-02-16T01:24:29.751Z,15.2
2019-02-16T01:30:24.771Z,17.81
2019-02-16T01:36:19.736Z,11.62
2019-02-16T01:42:14.854Z,8.32
2019-02-16T01:48:09.779Z,9.58
2019-02-16T01:54:04.747Z,11.4
2019-02-16T01:59:59.759Z,15.25
2019-02-16T02:05:54.768Z,11.29
2019-02-16T02:11:49.802Z,9.04
2019-02-16T02:17:44.783Z,12.06
2019-02-16T02:23:39.760Z,11.45
2019-02-16T02:29:34.763Z,7.77
2019-02-16T02:35:29.795Z,15.29
2019-02-16T02:41:24.785Z,13.5
2019-02-16T02:47:19.787Z,12.45
2019-02-16T02:53:14.806Z,12.34
2019-02-16T02:59:09.839Z,13.19
2019-02-16T03:05:04.810Z,10.31
2019-02-16T03:10:59.806Z,12.88
2019-02-16T03:16:54.843Z,13.48
2019-02-16T03:22:49.810Z,11.14
2019-02-16T03:28:44.825Z,10.57
2019-02-16T03:34:39.800Z,8.97
2019-02-16T03:40:34.825Z,10.65
2019-02-16T03:46:29.825Z,10.5
2019-02-16T03:52:24.825Z,13.22
2019-02-16T03:58:19.901Z,9.32
2019-02-16T04:04:14.847Z,9.88
2019-02-16T04:10:09.839Z,10.08
2019-02-16T04:16:04.875Z,7.85
2019-02-16T04:21:59.830Z,8.13
2019-02-16T04:27:54.869Z,13.68
2019-02-16T04:33:49.846Z,11.94
2019-02-16T04:39:44.864Z,13.3
2019-02-16T04:45:39.848Z,9.95
2019-02-16T04:51:34.844Z,14.02
2019-02-16T04:57:29.879Z,15.31
2019-02-16T05:03:24.855Z,10.13
2019-02-16T05:09:19.898Z,12.44
2019-02-16T05:15:14.881Z,9.51
2019-02-16T05:21:09.866Z,11.37
2019-02-16T05:27:04.909Z,12.03
2019-02-16T05:32:59.905Z,11
2019-02-16T05:38:54.894Z,6.93
2019-02-16T05:44:49.899Z,14.4
2019-02-16T05:50:44.899Z,10.39
2019-02-16T05:56:39.957Z,11.54
2019-02-16T06:02:34.896Z,11.32
2019-02-16T06:08:29.946Z,13.17
2019-02-16T06:14:24.952Z,8.06
2019-02-16T06:20:19.911Z,12.85
2019-02-16T06:26:14.911Z,9.4
2019-02-16T06:32:09.919Z,13.18
2019-02-16T06:38:04.925Z,22.06
2019-02-16T06:43:59.932Z,13.75
2019-02-16T06:49:54.926Z,18.5
2019-02-16T06:55:49.933Z,13.61
2019-02-16T07:01:44.935Z,13.44
2019-02-16T07:07:39.933Z,14.91
2019-02-16T07:13:34.913Z,16.9
2019-02-16T07:19:29.952Z,15.97
2019-02-16T07:25:24.950Z,11.11
2019-02-16T07:31:19.949Z,18.37
2019-02-16T07:37:14.958Z,13.46
2019-02-16T07:43:09.986Z,15.58
2019-02-16T07:49:04.961Z,15.6
2019-02-16T07:54:59.983Z,16.96
2019-02-16T08:00:54.996Z,16.79
2019-02-16T08:06:49.979Z,23.03
2019-02-16T08:12:44.967Z,24.7
2019-02-16T08:18:39.968Z,15.81
2019-02-16T08:24:34.967Z,15.4
2019-02-16T08:30:29.970Z,15.53
2019-02-16T08:36:24.978Z,16.83
2019-02-16T08:42:19.997Z,21.48
2019-02-16T08:48:14.997Z,13.3
2019-02-16T08:54:09.995Z,19.64
2019-02-16T09:00:05.014Z,22.78
2019-02-16T09:06:00.009Z,16.36
2019-02-16T09:11:55.001Z,15.07
2019-02-16T09:17:49.993Z,14.89
2019-02-16T09:23:45.019Z,12.55
2019-02-16T09:29:40.014Z,13.34
2019-02-16T09:35:35.012Z,9.5
2019-02-16T09:41:30.027Z,9.65
2019-02-16T09:47:25.023Z,10.27
2019-02-16T09:53:20.030Z,15.83
2019-02-16T09:59:15.034Z,8.01
2019-02-16T10:05:10.038Z,15.24
2019-02-16T10:11:05.028Z,11.51
2019-02-16T10:17:00.047Z,9
2019-02-16T10:22:55.081Z,7.35
2019-02-16T10:28:50.091Z,6.11
2019-02-16T10:34:45.027Z,9.48
2019-02-16T10:40:40.107Z,11.07
2019-02-16T10:46:35.091Z,7.67
2019-02-16T10:52:30.036Z,9.01
2019-02-16T10:58:25.147Z,10.9
2019-02-16T11:04:20.094Z,12.58
2019-02-16T11:10:15.080Z,8.24
2019-02-16T11:16:10.126Z,12.42
2019-02-16T11:22:05.113Z,7.98
2019-02-16T11:28:00.062Z,7.89
2019-02-16T11:33:55.107Z,9.55
2019-02-16T11:39:50.140Z,8.6
2019-02-16T11:45:45.090Z,6.88
2019-02-16T11:51:40.153Z,8.93
2019-02-16T11:57:35.108Z,12.33
2019-02-16T12:03:30.094Z,9.47
2019-02-16T12:09:25.092Z,6.71
2019-02-16T12:15:20.094Z,9.1
2019-02-16T12:21:15.134Z,9.47
2019-02-16T12:27:10.169Z,7.65
2019-02-16T12:33:05.160Z,7.34
2019-02-16T12:39:04.731Z,7.28
2019-02-16T12:44:55.129Z,6.59
2019-02-16T12:50:50.190Z,7.57
2019-02-16T12:56:45.178Z,7.64
2019-02-16T13:02:40.130Z,7.7
2019-02-16T13:08:35.140Z,10.65
2019-02-16T13:14:30.128Z,8.37
2019-02-16T13:20:25.208Z,5.75
2019-02-16T13:26:20.201Z,10.47
2019-02-16T13:32:15.204Z,6.54
2019-02-16T13:38:10.162Z,6.05
2019-02-16T13:44:05.163Z,4.94
2019-02-16T13:50:00.320Z,5.92
2019-02-16T13:55:55.204Z,6.02
2019-02-16T14:01:50.231Z,6.94
2019-02-16T14:07:45.193Z,5.47
2019-02-16T14:13:40.167Z,5.2
2019-02-16T14:19:35.206Z,5.9
2019-02-16T14:25:30.180Z,4.63
2019-02-16T14:31:28.342Z,8.25
2019-02-16T14:37:20.211Z,5.74
2019-02-16T14:43:15.193Z,8.37
2019-02-16T14:49:10.253Z,6.31
2019-02-16T14:55:05.213Z,6.67
2019-02-16T15:01:00.233Z,7.25
2019-02-16T15:06:55.219Z,8.21
2019-02-16T15:12:50.234Z,4.37
2019-02-16T15:18:45.240Z,9.34
2019-02-16T15:24:40.262Z,8.25
2019-02-16T15:30:35.237Z,5.74
2019-02-16T15:36:30.250Z,6.89
2019-02-16T15:42:25.229Z,9.8
2019-02-16T15:48:20.309Z,10.65
2019-02-16T15:54:15.247Z,7.51
2019-02-16T16:00:10.340Z,9.21
2019-02-16T16:06:05.266Z,9.43
2019-02-16T16:12:00.267Z,15.61
2019-02-16T16:17:55.273Z,17.84
2019-02-16T16:23:50.281Z,23.62
2019-02-16T16:29:45.286Z,26.54
2019-02-16T16:35:40.353Z,13.15
2019-02-16T16:41:35.307Z,15.22
2019-02-16T16:47:30.283Z,16.54
2019-02-16T16:53:25.275Z,15.72
2019-02-16T16:59:20.300Z,41.4
2019-02-16T17:05:15.293Z,78.2
2019-02-16T17:11:10.291Z,27.43
2019-02-16T17:17:05.332Z,26.55
2019-02-16T17:23:00.328Z,20.33
2019-02-16T17:28:55.342Z,20.15
2019-02-16T17:34:50.330Z,19.43
2019-02-16T17:40:45.313Z,18.02
2019-02-16T17:46:40.340Z,20.03
2019-02-16T17:52:35.311Z,20.27
2019-02-16T17:58:30.313Z,19.33
2019-02-16T18:04:25.336Z,15.42
2019-02-16T18:10:20.316Z,21.49
2019-02-16T18:16:15.368Z,16.1
2019-02-16T18:22:10.359Z,14.91
2019-02-16T18:28:05.397Z,15.47
2019-02-16T18:34:00.381Z,15.08
2019-02-16T18:39:55.369Z,16.21
2019-02-16T18:45:50.437Z,21.28
2019-02-16T18:51:45.361Z,18.26
2019-02-16T18:57:40.370Z,17.53
2019-02-16T19:03:35.354Z,22.91
2019-02-16T19:09:30.352Z,17.11
2019-02-16T19:15:25.367Z,19.31
2019-02-16T19:21:20.370Z,22
2019-02-16T19:27:16.799Z,20.27
2019-02-16T19:33:10.384Z,22.58
2019-02-16T19:39:05.384Z,21.87
2019-02-16T19:45:00.389Z,25.01
2019-02-16T19:50:55.448Z,22.91
2019-02-16T19:56:50.407Z,23.86
2019-02-16T20:02:45.400Z,25.8
2019-02-16T20:08:40.434Z,24.35
2019-02-16T20:14:35.410Z,25.96
2019-02-16T20:20:30.409Z,25.2
2019-02-16T20:26:25.441Z,33.03
2019-02-16T20:32:20.464Z,30.2
2019-02-16T20:38:15.423Z,32.9
2019-02-16T20:44:10.434Z,30.84
2019-02-16T20:50:05.441Z,36.87
2019-02-16T20:56:00.432Z,30.13
2019-02-16T21:01:55.481Z,29.03
2019-02-16T21:07:50.431Z,33.14
2019-02-16T21:13:45.431Z,34.51
2019-02-16T21:19:40.442Z,31.16
2019-02-16T21:25:35.459Z,28.8
2019-02-16T21:31:30.444Z,31.28
2019-02-16T21:37:25.445Z,32.76
2019-02-16T21:43:20.473Z,33.97
2019-02-16T21:49:15.463Z,38.29
2019-02-16T21:55:10.457Z,38.11
2019-02-16T22:01:05.487Z,35
2019-02-16T22:07:00.603Z,34.15
2019-02-16T22:12:55.477Z,36.58
2019-02-16T22:18:50.459Z,35.6
2019-02-16T22:24:45.491Z,31.8
2019-02-16T22:30:40.571Z,35.77
2019-02-16T22:36:35.483Z,29.5
2019-02-16T22:42:30.514Z,31.84
2019-02-16T22:48:25.510Z,31.26
2019-02-16T22:54:20.558Z,29.02
2019-02-16T23:00:15.498Z,28.65
2019-02-16T23:06:10.489Z,28.9
2019-02-16T23:12:05.498Z,34.17
2019-02-16T23:18:00.512Z,32.77
2019-02-16T23:23:55.520Z,31.77
2019-02-16T23:29:50.574Z,30.44
2019-02-16T23:35:45.542Z,26.72
2019-02-16T23:41:40.515Z,28.07
2019-02-16T23:47:35.526Z,21.33
2019-02-16T23:53:30.524Z,29.51
2019-02-16T23:59:25.536Z,32.73
